sensor_id;sensor_type;location;lat;lon;timestamp;pressure;altitude;pressure_sealevel;temperature;humidity
47430;BME280;33181;49.246;7.372;2024-01-30T00:01:43;100168.84;;;4.08;85.33
47430;BME280;33181;49.246;7.372;2024-01-30T00:04:09;100176.66;;;4.08;85.77
47430;BME280;33181;49.246;7.372;2024-01-30T00:06:34;100170.59;;;4.07;85.54
47430;BME280;33181;49.246;7.372;2024-01-30T00:09:00;100165.31;;;4.10;85.67
47430;BME280;33181;49.246;7.372;2024-01-30T00:11:26;100173.13;;;4.10;85.51
47430;BME280;33181;49.246;7.372;2024-01-30T00:13:52;100165.34;;;4.09;85.37
47430;BME280;33181;49.246;7.372;2024-01-30T00:16:25;100168.22;;;4.00;85.09
47430;BME280;33181;49.246;7.372;2024-01-30T00:18:54;100168.28;;;3.98;85.13
47430;BME280;33181;49.246;7.372;2024-01-30T00:21:20;100168.97;;;4.03;85.21
47430;BME280;33181;49.246;7.372;2024-01-30T00:23:47;100174.19;;;4.03;84.78
47430;BME280;33181;49.246;7.372;2024-01-30T00:26:13;100168.28;;;3.98;85.19
47430;BME280;33181;49.246;7.372;2024-01-30T00:28:41;100164.28;;;3.88;85.00
47430;BME280;33181;49.246;7.372;2024-01-30T00:31:07;100156.59;;;3.83;85.73
47430;BME280;33181;49.246;7.372;2024-01-30T00:33:32;100160.88;;;3.86;85.76
47430;BME280;33181;49.246;7.372;2024-01-30T00:35:58;100164.28;;;3.88;85.67
47430;BME280;33181;49.246;7.372;2024-01-30T00:38:24;100165.91;;;3.90;85.51
47430;BME280;33181;49.246;7.372;2024-01-30T00:40:50;100164.13;;;3.92;85.17
47430;BME280;33181;49.246;7.372;2024-01-30T00:43:16;100165.06;;;3.90;85.10
47430;BME280;33181;49.246;7.372;2024-01-30T00:45:44;100165.97;;;3.89;84.71
47430;BME280;33181;49.246;7.372;2024-01-30T00:48:10;100162.56;;;3.87;84.58
47430;BME280;33181;49.246;7.372;2024-01-30T00:50:35;100159.19;;;3.83;84.77
47430;BME280;33181;49.246;7.372;2024-01-30T00:53:01;100150.66;;;3.80;84.89
47430;BME280;33181;49.246;7.372;2024-01-30T00:55:27;100164.72;;;3.72;85.13
47430;BME280;33181;49.246;7.372;2024-01-30T00:57:53;100162.22;;;3.69;85.25
47430;BME280;33181;49.246;7.372;2024-01-30T01:00:18;100162.34;;;3.65;85.40
47430;BME280;33181;49.246;7.372;2024-01-30T01:02:46;100166.75;;;3.63;86.33
47430;BME280;33181;49.246;7.372;2024-01-30T01:05:12;100164.25;;;3.60;86.54
47430;BME280;33181;49.246;7.372;2024-01-30T01:07:38;100158.16;;;3.61;86.54
47430;BME280;33181;49.246;7.372;2024-01-30T01:10:06;100152.03;;;3.62;86.53
47430;BME280;33181;49.246;7.372;2024-01-30T01:12:32;100156.38;;;3.63;86.62
47430;BME280;33181;49.246;7.372;2024-01-30T01:14:57;100158.00;;;3.65;86.25
47430;BME280;33181;49.246;7.372;2024-01-30T01:17:23;100159.91;;;3.60;85.70
47430;BME280;33181;49.246;7.372;2024-01-30T01:19:49;100166.78;;;3.61;85.94
47430;BME280;33181;49.246;7.372;2024-01-30T01:22:17;100163.28;;;3.62;85.76
47430;BME280;33181;49.246;7.372;2024-01-30T01:24:44;100161.69;;;3.58;85.53
47430;BME280;33181;49.246;7.372;2024-01-30T01:27:09;100164.34;;;3.57;85.08
47430;BME280;33181;49.246;7.372;2024-01-30T01:29:35;100168.72;;;3.55;85.48
47430;BME280;33181;49.246;7.372;2024-01-30T01:32:01;100166.19;;;3.53;85.20
47430;BME280;33181;49.246;7.372;2024-01-30T01:34:26;100165.53;;;3.45;85.10
47430;BME280;33181;49.246;7.372;2024-01-30T01:36:52;100173.41;;;3.42;85.12
47430;BME280;33181;49.246;7.372;2024-01-30T01:39:22;100165.88;;;3.33;85.00
47430;BME280;33181;49.246;7.372;2024-01-30T01:41:49;100161.59;;;3.32;85.30
47430;BME280;33181;49.246;7.372;2024-01-30T01:44:15;100160.94;;;3.23;85.59
47430;BME280;33181;49.246;7.372;2024-01-30T01:46:41;100158.47;;;3.19;85.78
47430;BME280;33181;49.246;7.372;2024-01-30T01:49:07;100167.22;;;3.15;85.82
47430;BME280;33181;49.246;7.372;2024-01-30T01:51:35;100163.69;;;3.17;86.23
47430;BME280;33181;49.246;7.372;2024-01-30T01:54:04;100159.31;;;3.19;85.92
47430;BME280;33181;49.246;7.372;2024-01-30T01:56:31;100163.78;;;3.14;85.44
47430;BME280;33181;49.246;7.372;2024-01-30T01:59:04;100164.72;;;3.12;85.75
47430;BME280;33181;49.246;7.372;2024-01-30T02:01:32;100156.97;;;3.10;85.78
47430;BME280;33181;49.246;7.372;2024-01-30T02:03:59;100159.53;;;3.12;85.93
47430;BME280;33181;49.246;7.372;2024-01-30T02:06:26;100162.19;;;3.09;86.61
47430;BME280;33181;49.246;7.372;2024-01-30T02:08:51;100158.66;;;3.11;86.46
47430;BME280;33181;49.246;7.372;2024-01-30T02:11:19;100159.44;;;3.15;86.33
47430;BME280;33181;49.246;7.372;2024-01-30T02:13:45;100153.41;;;3.14;85.70
47430;BME280;33181;49.246;7.372;2024-01-30T02:16:11;100156.81;;;3.16;85.71
47430;BME280;33181;49.246;7.372;2024-01-30T02:18:37;100162.13;;;3.12;85.68
47430;BME280;33181;49.246;7.372;2024-01-30T02:21:10;100163.84;;;3.13;85.64
47430;BME280;33181;49.246;7.372;2024-01-30T02:23:36;100160.41;;;3.12;85.55
47430;BME280;33181;49.246;7.372;2024-01-30T02:26:02;100161.28;;;3.11;85.31
47430;BME280;33181;49.246;7.372;2024-01-30T02:28:27;100157.81;;;3.12;85.30
47430;BME280;33181;49.246;7.372;2024-01-30T02:30:53;100148.28;;;3.11;84.84
47430;BME280;33181;49.246;7.372;2024-01-30T02:33:19;100154.47;;;3.07;84.56
47430;BME280;33181;49.246;7.372;2024-01-30T02:35:44;100159.75;;;3.02;84.67
47430;BME280;33181;49.246;7.372;2024-01-30T02:38:10;100157.16;;;3.02;85.14
47430;BME280;33181;49.246;7.372;2024-01-30T02:40:36;100157.16;;;3.02;84.71
47430;BME280;33181;49.246;7.372;2024-01-30T02:43:03;100157.16;;;3.02;84.71
47430;BME280;33181;49.246;7.372;2024-01-30T02:45:28;100159.75;;;3.02;84.70
47430;BME280;33181;49.246;7.372;2024-01-30T02:47:54;100153.69;;;3.04;84.68
47430;BME280;33181;49.246;7.372;2024-01-30T02:50:20;100143.25;;;3.05;84.62
47430;BME280;33181;49.246;7.372;2024-01-30T02:52:49;100151.19;;;3.00;84.52
47430;BME280;33181;49.246;7.372;2024-01-30T02:55:14;100154.63;;;3.01;84.49
47430;BME280;33181;49.246;7.372;2024-01-30T02:57:43;100157.31;;;2.98;84.48
47430;BME280;33181;49.246;7.372;2024-01-30T03:00:09;100153.88;;;2.96;84.67
47430;BME280;33181;49.246;7.372;2024-01-30T03:02:36;100150.50;;;2.94;84.63
47430;BME280;33181;49.246;7.372;2024-01-30T03:05:03;100152.19;;;2.95;84.22
47430;BME280;33181;49.246;7.372;2024-01-30T03:07:31;100152.41;;;2.87;83.96
47430;BME280;33181;49.246;7.372;2024-01-30T03:09:58;100155.09;;;2.84;84.25
47430;BME280;33181;49.246;7.372;2024-01-30T03:12:24;100152.59;;;2.79;84.36
47430;BME280;33181;49.246;7.372;2024-01-30T03:14:49;100154.22;;;2.84;84.55
47430;BME280;33181;49.246;7.372;2024-01-30T03:17:15;100154.41;;;2.77;84.52
47430;BME280;33181;49.246;7.372;2024-01-30T03:19:41;100157.78;;;2.79;84.78
47430;BME280;33181;49.246;7.372;2024-01-30T03:22:07;100152.56;;;2.81;84.59
47430;BME280;33181;49.246;7.372;2024-01-30T03:24:33;100160.53;;;2.75;84.37
47430;BME280;33181;49.246;7.372;2024-01-30T03:26:59;100155.41;;;2.72;84.25
47430;BME280;33181;49.246;7.372;2024-01-30T03:29:25;100155.50;;;2.69;84.80
47430;BME280;33181;49.246;7.372;2024-01-30T03:31:51;100157.22;;;2.68;84.84
47430;BME280;33181;49.246;7.372;2024-01-30T03:34:16;100158.94;;;2.69;84.26
47430;BME280;33181;49.246;7.372;2024-01-30T03:36:42;100158.09;;;2.67;84.44
47430;BME280;33181;49.246;7.372;2024-01-30T03:39:08;100159.91;;;2.65;84.40
47430;BME280;33181;49.246;7.372;2024-01-30T03:41:33;100147.00;;;2.62;84.98
47430;BME280;33181;49.246;7.372;2024-01-30T03:43:59;100154.75;;;2.64;84.71
47430;BME280;33181;49.246;7.372;2024-01-30T03:46:25;100150.41;;;2.64;84.90
47430;BME280;33181;49.246;7.372;2024-01-30T03:48:51;100142.53;;;2.67;84.56
47430;BME280;33181;49.246;7.372;2024-01-30T03:51:16;100147.72;;;2.67;84.43
47430;BME280;33181;49.246;7.372;2024-01-30T03:53:43;100143.47;;;2.65;84.74
47430;BME280;33181;49.246;7.372;2024-01-30T03:56:09;100147.97;;;2.58;84.97
47430;BME280;33181;49.246;7.372;2024-01-30T03:58:35;100141.91;;;2.59;85.02
47430;BME280;33181;49.246;7.372;2024-01-30T04:01:01;100143.59;;;2.60;85.08
47430;BME280;33181;49.246;7.372;2024-01-30T04:03:27;100143.56;;;2.62;84.68
47430;BME280;33181;49.246;7.372;2024-01-30T04:05:53;100145.28;;;2.61;84.84
47430;BME280;33181;49.246;7.372;2024-01-30T04:08:19;100148.84;;;2.57;84.77
47430;BME280;33181;49.246;7.372;2024-01-30T04:10:46;100148.09;;;2.52;84.31
47430;BME280;33181;49.246;7.372;2024-01-30T04:13:15;100149.06;;;2.49;85.08
47430;BME280;33181;49.246;7.372;2024-01-30T04:15:40;100144.91;;;2.42;84.75
47430;BME280;33181;49.246;7.372;2024-01-30T04:18:06;100143.28;;;2.38;84.90
47430;BME280;33181;49.246;7.372;2024-01-30T04:20:32;100144.09;;;2.40;85.75
47430;BME280;33181;49.246;7.372;2024-01-30T04:22:57;100133.69;;;2.42;85.14
47430;BME280;33181;49.246;7.372;2024-01-30T04:25:23;100141.50;;;2.40;85.50
47430;BME280;33181;49.246;7.372;2024-01-30T04:27:49;100139.84;;;2.38;85.36
47430;BME280;33181;49.246;7.372;2024-01-30T04:30:15;100142.59;;;2.31;86.18
47430;BME280;33181;49.246;7.372;2024-01-30T04:32:41;100142.59;;;2.30;86.22
47430;BME280;33181;49.246;7.372;2024-01-30T04:35:07;100138.31;;;2.29;86.67
47430;BME280;33181;49.246;7.372;2024-01-30T04:37:33;100140.81;;;2.34;86.95
47430;BME280;33181;49.246;7.372;2024-01-30T04:39:58;100139.00;;;2.37;86.42
47430;BME280;33181;49.246;7.372;2024-01-30T04:42:24;100143.34;;;2.37;86.30
47430;BME280;33181;49.246;7.372;2024-01-30T04:44:50;100142.59;;;2.31;86.10
47430;BME280;33181;49.246;7.372;2024-01-30T04:47:16;100143.50;;;2.29;85.66
47430;BME280;33181;49.246;7.372;2024-01-30T04:49:42;100143.44;;;2.32;85.94
47430;BME280;33181;49.246;7.372;2024-01-30T04:52:08;100139.84;;;2.36;86.19
47430;BME280;33181;49.246;7.372;2024-01-30T04:54:35;100147.63;;;2.36;85.69
47430;BME280;33181;49.246;7.372;2024-01-30T04:57:04;100155.56;;;2.30;85.71
47430;BME280;33181;49.246;7.372;2024-01-30T04:59:34;100152.25;;;2.25;86.63
47430;BME280;33181;49.246;7.372;2024-01-30T05:01:59;100152.13;;;2.29;86.32
47430;BME280;33181;49.246;7.372;2024-01-30T05:04:25;100152.94;;;2.31;85.93
47430;BME280;33181;49.246;7.372;2024-01-30T05:06:51;100150.31;;;2.33;86.13
47430;BME280;33181;49.246;7.372;2024-01-30T05:09:17;100151.19;;;2.34;86.01
47430;BME280;33181;49.246;7.372;2024-01-30T05:11:42;100158.22;;;2.28;85.84
47430;BME280;33181;49.246;7.372;2024-01-30T05:14:08;100160.72;;;2.31;86.06
47430;BME280;33181;49.246;7.372;2024-01-30T05:16:35;100162.44;;;2.32;85.81
47430;BME280;33181;49.246;7.372;2024-01-30T05:19:00;100154.66;;;2.32;85.14
47430;BME280;33181;49.246;7.372;2024-01-30T05:21:26;100152.31;;;2.22;85.18
47430;BME280;33181;49.246;7.372;2024-01-30T05:23:52;100151.84;;;2.04;85.50
47430;BME280;33181;49.246;7.372;2024-01-30T05:26:18;100159.81;;;1.97;86.39
47430;BME280;33181;49.246;7.372;2024-01-30T05:28:44;100156.50;;;1.90;86.88
47430;BME280;33181;49.246;7.372;2024-01-30T05:31:13;100160.91;;;1.87;87.86
47430;BME280;33181;49.246;7.372;2024-01-30T05:33:40;100153.94;;;1.89;88.00
47430;BME280;33181;49.246;7.372;2024-01-30T05:36:06;100161.63;;;1.93;87.78
47430;BME280;33181;49.246;7.372;2024-01-30T05:38:32;100158.91;;;1.98;88.19
47430;BME280;33181;49.246;7.372;2024-01-30T05:40:58;100161.38;;;2.04;88.08
47430;BME280;33181;49.246;7.372;2024-01-30T05:43:24;100159.59;;;2.06;88.20
47430;BME280;33181;49.246;7.372;2024-01-30T05:45:51;100157.78;;;2.09;88.39
47430;BME280;33181;49.246;7.372;2024-01-30T05:48:17;100158.56;;;2.15;88.52
47430;BME280;33181;49.246;7.372;2024-01-30T05:50:43;100158.50;;;2.16;88.09
47430;BME280;33181;49.246;7.372;2024-01-30T05:53:08;100160.25;;;2.16;87.78
47430;BME280;33181;49.246;7.372;2024-01-30T05:55:34;100155.00;;;2.19;87.89
47430;BME280;33181;49.246;7.372;2024-01-30T05:58:00;100156.59;;;2.24;87.44
47430;BME280;33181;49.246;7.372;2024-01-30T06:00:26;100158.28;;;2.25;87.58
47430;BME280;33181;49.246;7.372;2024-01-30T06:02:52;100154.78;;;2.28;86.08
47430;BME280;33181;49.246;7.372;2024-01-30T06:05:18;100155.75;;;2.24;86.64
47430;BME280;33181;49.246;7.372;2024-01-30T06:07:44;100149.69;;;2.23;87.01
47430;BME280;33181;49.246;7.372;2024-01-30T06:10:09;100159.09;;;2.27;87.17
47430;BME280;33181;49.246;7.372;2024-01-30T06:12:35;100154.78;;;2.28;87.16
47430;BME280;33181;49.246;7.372;2024-01-30T06:15:02;100157.38;;;2.26;86.97
47430;BME280;33181;49.246;7.372;2024-01-30T06:17:28;100153.09;;;2.25;86.90
47430;BME280;33181;49.246;7.372;2024-01-30T06:19:54;100161.78;;;2.24;86.52
47430;BME280;33181;49.246;7.372;2024-01-30T06:22:20;100158.47;;;2.18;87.00
47430;BME280;33181;49.246;7.372;2024-01-30T06:24:46;100163.75;;;2.13;86.48
47430;BME280;33181;49.246;7.372;2024-01-30T06:27:14;100159.41;;;2.14;86.99
47430;BME280;33181;49.246;7.372;2024-01-30T06:29:42;100158.56;;;2.13;87.18
47430;BME280;33181;49.246;7.372;2024-01-30T06:32:08;100156.03;;;2.12;86.82
47430;BME280;33181;49.246;7.372;2024-01-30T06:34:34;100153.53;;;2.07;86.81
47430;BME280;33181;49.246;7.372;2024-01-30T06:37:00;100164.66;;;2.11;86.85
47430;BME280;33181;49.246;7.372;2024-01-30T06:39:26;100157.78;;;2.09;86.97
47430;BME280;33181;49.246;7.372;2024-01-30T06:41:52;100162.25;;;2.03;87.63
47430;BME280;33181;49.246;7.372;2024-01-30T06:44:18;100161.34;;;2.05;87.56
47430;BME280;33181;49.246;7.372;2024-01-30T06:46:44;100157.09;;;2.03;87.76
47430;BME280;33181;49.246;7.372;2024-01-30T06:49:10;100157.16;;;2.00;87.60
47430;BME280;33181;49.246;7.372;2024-01-30T06:51:36;100160.56;;;2.02;88.68
47430;BME280;33181;49.246;7.372;2024-01-30T06:54:02;100166.47;;;2.08;88.59
47430;BME280;33181;49.246;7.372;2024-01-30T06:56:28;100168.94;;;2.13;88.37
47430;BME280;33181;49.246;7.372;2024-01-30T06:58:54;100174.03;;;2.16;88.78
47430;BME280;33181;49.246;7.372;2024-01-30T07:01:20;100170.56;;;2.17;88.41
47430;BME280;33181;49.246;7.372;2024-01-30T07:03:46;100167.09;;;2.18;88.04
47430;BME280;33181;49.246;7.372;2024-01-30T07:06:12;100166.31;;;2.15;88.73
47430;BME280;33181;49.246;7.372;2024-01-30T07:08:38;100163.75;;;2.13;88.82
47430;BME280;33181;49.246;7.372;2024-01-30T07:11:06;100174.81;;;2.20;89.25
47430;BME280;33181;49.246;7.372;2024-01-30T07:13:34;100170.41;;;2.25;89.49
47430;BME280;33181;49.246;7.372;2024-01-30T07:16:00;100172.94;;;2.26;89.35
47430;BME280;33181;49.246;7.372;2024-01-30T07:18:26;100172.78;;;2.32;89.33
47430;BME280;33181;49.246;7.372;2024-01-30T07:20:52;100179.56;;;2.38;89.29
47430;BME280;33181;49.246;7.372;2024-01-30T07:23:17;100173.34;;;2.45;89.29
47430;BME280;33181;49.246;7.372;2024-01-30T07:25:44;100172.41;;;2.49;88.43
47430;BME280;33181;49.246;7.372;2024-01-30T07:28:10;100174.88;;;2.54;88.75
47430;BME280;33181;49.246;7.372;2024-01-30T07:30:38;100186.91;;;2.57;88.76
47430;BME280;33181;49.246;7.372;2024-01-30T07:33:04;100183.41;;;2.59;88.37
47430;BME280;33181;49.246;7.372;2024-01-30T07:35:30;100182.56;;;2.57;88.50
47430;BME280;33181;49.246;7.372;2024-01-30T07:37:56;100192.75;;;2.65;88.79
47430;BME280;33181;49.246;7.372;2024-01-30T07:40:22;100192.75;;;2.65;88.28
47430;BME280;33181;49.246;7.372;2024-01-30T07:42:49;100201.34;;;2.67;87.75
47430;BME280;33181;49.246;7.372;2024-01-30T07:45:15;100197.78;;;2.71;88.05
47430;BME280;33181;49.246;7.372;2024-01-30T07:47:40;100208.16;;;2.71;87.40
47430;BME280;33181;49.246;7.372;2024-01-30T07:50:08;100201.25;;;2.71;87.77
47430;BME280;33181;49.246;7.372;2024-01-30T07:52:34;100214.94;;;2.76;87.64
47430;BME280;33181;49.246;7.372;2024-01-30T07:55:00;100203.72;;;2.76;88.20
47430;BME280;33181;49.246;7.372;2024-01-30T07:57:29;100207.84;;;2.83;88.48
47430;BME280;33181;49.246;7.372;2024-01-30T07:59:55;100206.09;;;2.84;88.23
47430;BME280;33181;49.246;7.372;2024-01-30T08:02:20;100206.94;;;2.86;87.89
47430;BME280;33181;49.246;7.372;2024-01-30T08:04:46;100206.00;;;2.88;87.68
47430;BME280;33181;49.246;7.372;2024-01-30T08:07:14;100207.78;;;2.86;87.29
47430;BME280;33181;49.246;7.372;2024-01-30T08:09:40;100208.69;;;2.84;88.18
47430;BME280;33181;49.246;7.372;2024-01-30T08:12:06;100206.91;;;2.87;88.61
47430;BME280;33181;49.246;7.372;2024-01-30T08:14:31;100208.53;;;2.90;88.77
47430;BME280;33181;49.246;7.372;2024-01-30T08:16:57;100213.47;;;3.00;88.80
47430;BME280;33181;49.246;7.372;2024-01-30T08:19:23;100211.66;;;3.04;88.43
47430;BME280;33181;49.246;7.372;2024-01-30T08:21:49;100206.31;;;3.10;88.75
47430;BME280;33181;49.246;7.372;2024-01-30T08:24:14;100199.19;;;3.17;87.88
47430;BME280;33181;49.246;7.372;2024-01-30T08:26:42;100210.44;;;3.17;88.13
47430;BME280;33181;49.246;7.372;2024-01-30T08:29:08;100213.03;;;3.17;87.82
47430;BME280;33181;49.246;7.372;2024-01-30T08:31:33;100218.19;;;3.19;88.02
47430;BME280;33181;49.246;7.372;2024-01-30T08:33:59;100218.97;;;3.22;87.61
47430;BME280;33181;49.246;7.372;2024-01-30T08:36:25;100210.31;;;3.22;87.02
47430;BME280;33181;49.246;7.372;2024-01-30T08:38:51;100204.34;;;3.18;87.80
47430;BME280;33181;49.246;7.372;2024-01-30T08:41:17;100213.72;;;3.24;87.89
47430;BME280;33181;49.246;7.372;2024-01-30T08:43:43;100207.50;;;3.30;87.97
47430;BME280;33181;49.246;7.372;2024-01-30T08:46:10;100214.13;;;3.41;88.18
47430;BME280;33181;49.246;7.372;2024-01-30T08:48:36;100218.25;;;3.48;88.14
47430;BME280;33181;49.246;7.372;2024-01-30T08:51:02;100213.63;;;3.58;87.86
47430;BME280;33181;49.246;7.372;2024-01-30T08:53:28;100211.69;;;3.66;87.34
47430;BME280;33181;49.246;7.372;2024-01-30T08:55:53;100209.78;;;3.71;86.94
47430;BME280;33181;49.246;7.372;2024-01-30T08:58:19;100214.13;;;3.71;85.94
47430;BME280;33181;49.246;7.372;2024-01-30T09:00:45;100212.25;;;3.76;86.80
47430;BME280;33181;49.246;7.372;2024-01-30T09:03:11;100214.53;;;3.87;86.71
47430;BME280;33181;49.246;7.372;2024-01-30T09:05:36;100210.06;;;3.92;86.24
47430;BME280;33181;49.246;7.372;2024-01-30T09:08:02;100211.47;;;4.04;86.46
47430;BME280;33181;49.246;7.372;2024-01-30T09:10:28;100214.56;;;4.15;86.69
47430;BME280;33181;49.246;7.372;2024-01-30T09:12:53;100211.66;;;4.26;86.73
47430;BME280;33181;49.246;7.372;2024-01-30T09:15:19;100208.06;;;4.28;85.70
47430;BME280;33181;49.246;7.372;2024-01-30T09:17:45;100210.59;;;4.31;85.38
47430;BME280;33181;49.246;7.372;2024-01-30T09:20:11;100205.25;;;4.36;85.69
47430;BME280;33181;49.246;7.372;2024-01-30T09:22:37;100221.34;;;4.47;86.27
47430;BME280;33181;49.246;7.372;2024-01-30T09:25:03;100209.81;;;4.56;86.07
47430;BME280;33181;49.246;7.372;2024-01-30T09:27:29;100211.38;;;4.61;85.08
47430;BME280;33181;49.246;7.372;2024-01-30T09:29:55;100215.66;;;4.62;85.29
47430;BME280;33181;49.246;7.372;2024-01-30T09:32:21;100220.53;;;4.73;86.11
47430;BME280;33181;49.246;7.372;2024-01-30T09:34:47;100220.56;;;4.72;85.81
47430;BME280;33181;49.246;7.372;2024-01-30T09:37:12;100222.88;;;4.81;85.88
47430;BME280;33181;49.246;7.372;2024-01-30T09:39:40;100228.69;;;4.89;85.90
47430;BME280;33181;49.246;7.372;2024-01-30T09:42:34;100223.09;;;5.00;85.79
47430;BME280;33181;49.246;7.372;2024-01-30T09:45:04;100220.69;;;5.20;85.95
47430;BME280;33181;49.246;7.372;2024-01-30T09:47:58;100226.03;;;5.41;85.63
47430;BME280;33181;49.246;7.372;2024-01-30T09:50:24;100223.81;;;5.53;85.21
47430;BME280;33181;49.246;7.372;2024-01-30T09:52:51;100226.56;;;5.74;86.57
47430;BME280;33181;49.246;7.372;2024-01-30T09:55:18;100230.03;;;5.98;86.66
47430;BME280;33181;49.246;7.372;2024-01-30T09:57:44;100219.69;;;6.18;86.45
47430;BME280;33181;49.246;7.372;2024-01-30T10:00:11;100227.72;;;6.36;85.45
47430;BME280;33181;49.246;7.372;2024-01-30T10:02:38;100234.81;;;6.54;85.05
47430;BME280;33181;49.246;7.372;2024-01-30T10:05:05;100233.59;;;6.63;83.27
47430;BME280;33181;49.246;7.372;2024-01-30T10:07:31;100243.69;;;6.72;83.69
47430;BME280;33181;49.246;7.372;2024-01-30T10:09:57;100252.22;;;6.76;83.24
47430;BME280;33181;49.246;7.372;2024-01-30T10:12:23;100244.19;;;6.80;82.00
47430;BME280;33181;49.246;7.372;2024-01-30T10:14:49;100255.69;;;6.76;82.63
47430;BME280;33181;49.246;7.372;2024-01-30T10:17:14;100259.38;;;6.70;82.40
47430;BME280;33181;49.246;7.372;2024-01-30T10:19:41;100249.06;;;6.67;83.28
47430;BME280;33181;49.246;7.372;2024-01-30T10:22:07;100254.41;;;6.64;83.02
47430;BME280;33181;49.246;7.372;2024-01-30T10:24:34;100247.38;;;6.66;83.46
47430;BME280;33181;49.246;7.372;2024-01-30T10:27:00;100246.22;;;6.52;85.33
47430;BME280;33181;49.246;7.372;2024-01-30T10:29:27;100248.84;;;6.52;85.97
47430;BME280;33181;49.246;7.372;2024-01-30T10:32:06;100243.59;;;6.52;86.30
47430;BME280;33181;49.246;7.372;2024-01-30T10:34:33;100240.59;;;6.62;87.74
47430;BME280;33181;49.246;7.372;2024-01-30T10:37:09;100229.03;;;6.68;87.17
47430;BME280;33181;49.246;7.372;2024-01-30T10:39:42;100224.22;;;6.79;86.88
47430;BME280;33181;49.246;7.372;2024-01-30T10:42:18;100226.47;;;6.88;87.15
47430;BME280;33181;49.246;7.372;2024-01-30T10:45:03;100217.25;;;7.00;87.13
47430;BME280;33181;49.246;7.372;2024-01-30T10:47:35;100225.44;;;7.13;87.36
47430;BME280;33181;49.246;7.372;2024-01-30T10:50:04;100218.88;;;7.23;87.43
47430;BME280;33181;49.246;7.372;2024-01-30T10:52:32;100229.44;;;7.40;86.96
47430;BME280;33181;49.246;7.372;2024-01-30T10:54:58;100227.50;;;7.46;86.34
47430;BME280;33181;49.246;7.372;2024-01-30T10:57:25;100220.03;;;7.57;86.63
47430;BME280;33181;49.246;7.372;2024-01-30T10:59:58;100225.63;;;7.68;86.62
47430;BME280;33181;49.246;7.372;2024-01-30T11:02:24;100220.75;;;7.79;86.39
47430;BME280;33181;49.246;7.372;2024-01-30T11:04:57;100225.28;;;7.95;85.72
47430;BME280;33181;49.246;7.372;2024-01-30T11:07:28;100216.09;;;8.05;86.05
47430;BME280;33181;49.246;7.372;2024-01-30T11:10:01;100226.13;;;8.14;85.97
47430;BME280;33181;49.246;7.372;2024-01-30T11:12:28;100229.09;;;8.25;85.63
47430;BME280;33181;49.246;7.372;2024-01-30T11:15:15;100231.13;;;8.38;85.29
47430;BME280;33181;49.246;7.372;2024-01-30T11:20:25;100224.78;;;8.61;85.50
47430;BME280;33181;49.246;7.372;2024-01-30T11:22:53;100221.97;;;8.65;85.57
47430;BME280;33181;49.246;7.372;2024-01-30T11:25:23;100214.69;;;8.89;85.36
47430;BME280;33181;49.246;7.372;2024-01-30T11:27:53;100209.50;;;9.05;83.21
47430;BME280;33181;49.246;7.372;2024-01-30T11:35:36;100195.97;;;9.63;82.41
47430;BME280;33181;49.246;7.372;2024-01-30T11:38:04;100202.25;;;9.77;81.93
47430;BME280;33181;49.246;7.372;2024-01-30T11:40:31;100194.41;;;9.92;81.26
47430;BME280;33181;49.246;7.372;2024-01-30T11:43:00;100202.19;;;9.94;80.30
47430;BME280;33181;49.246;7.372;2024-01-30T11:45:29;100204.00;;;10.09;80.11
47430;BME280;33181;49.246;7.372;2024-01-30T11:47:55;100204.50;;;10.16;79.99
47430;BME280;33181;49.246;7.372;2024-01-30T11:50:21;100202.53;;;10.19;79.79
47430;BME280;33181;49.246;7.372;2024-01-30T11:52:48;100192.03;;;10.04;79.36
47430;BME280;33181;49.246;7.372;2024-01-30T11:55:15;100189.75;;;10.13;79.29
47430;BME280;33181;49.246;7.372;2024-01-30T11:57:41;100184.50;;;10.29;79.28
47430;BME280;33181;49.246;7.372;2024-01-30T12:00:15;100182.56;;;10.33;78.22
47430;BME280;33181;49.246;7.372;2024-01-30T12:02:43;100187.56;;;10.37;78.59
47430;BME280;33181;49.246;7.372;2024-01-30T12:05:09;100184.84;;;10.39;78.28
47430;BME280;33181;49.246;7.372;2024-01-30T12:07:35;100188.72;;;10.48;77.49
47430;BME280;33181;49.246;7.372;2024-01-30T12:10:02;100183.44;;;10.63;77.17
47430;BME280;33181;49.246;7.372;2024-01-30T12:12:28;100184.63;;;10.58;77.10
47430;BME280;33181;49.246;7.372;2024-01-30T12:14:55;100179.38;;;10.58;77.14
47430;BME280;33181;49.246;7.372;2024-01-30T12:17:31;100178.72;;;10.54;77.58
47430;BME280;33181;49.246;7.372;2024-01-30T12:20:15;100177.94;;;10.52;77.34
47430;BME280;33181;49.246;7.372;2024-01-30T12:22:46;100175.63;;;10.62;77.42
47430;BME280;33181;49.246;7.372;2024-01-30T12:25:17;100178.16;;;10.79;77.40
47430;BME280;33181;49.246;7.372;2024-01-30T12:27:46;100175.75;;;10.75;77.25
47430;BME280;33181;49.246;7.372;2024-01-30T12:30:15;100172.13;;;10.77;77.64
47430;BME280;33181;49.246;7.372;2024-01-30T12:32:44;100175.50;;;10.79;77.46
47430;BME280;33181;49.246;7.372;2024-01-30T12:35:11;100170.91;;;10.83;77.44
47430;BME280;33181;49.246;7.372;2024-01-30T12:37:38;100168.41;;;10.81;77.76
47430;BME280;33181;49.246;7.372;2024-01-30T12:40:05;100173.78;;;11.08;76.87
47430;BME280;33181;49.246;7.372;2024-01-30T12:42:31;100169.19;;;11.12;76.68
47430;BME280;33181;49.246;7.372;2024-01-30T12:44:58;100172.38;;;11.31;76.47
47430;BME280;33181;49.246;7.372;2024-01-30T12:47:27;100179.00;;;11.39;76.15
47430;BME280;33181;49.246;7.372;2024-01-30T12:49:52;100177.94;;;11.27;76.20
47430;BME280;33181;49.246;7.372;2024-01-30T12:52:20;100174.72;;;11.22;76.24
47430;BME280;33181;49.246;7.372;2024-01-30T12:54:50;100165.84;;;11.39;76.29
47430;BME280;33181;49.246;7.372;2024-01-30T12:57:16;100163.28;;;11.37;76.14
47430;BME280;33181;49.246;7.372;2024-01-30T12:59:43;100165.00;;;11.38;75.69
47430;BME280;33181;49.246;7.372;2024-01-30T13:02:09;100168.72;;;11.34;75.97
47430;BME280;33181;49.246;7.372;2024-01-30T13:04:35;100159.72;;;11.38;76.14
47430;BME280;33181;49.246;7.372;2024-01-30T13:07:01;100154.44;;;11.24;76.50